sensor_id;sensor_type;location;lat;lon;timestamp;temperature;humidity
23283;DHT22;11810;51.178;3.878;2023-02-22T00:00:59;6.40;99.90
23283;DHT22;11810;51.178;3.878;2023-02-22T00:03:32;6.30;99.90
23283;DHT22;11810;51.178;3.878;2023-02-22T00:07:27;6.40;99.90
23283;DHT22;11810;51.178;3.878;2023-02-22T00:09:53;6.40;99.90
23283;DHT22;11810;51.178;3.878;2023-02-22T00:12:19;6.40;99.90
23283;DHT22;11810;51.178;3.878;2023-02-22T00:14:45;6.50;99.90
23283;DHT22;11810;51.178;3.878;2023-02-22T00:17:11;6.50;99.90
23283;DHT22;11810;51.178;3.878;2023-02-22T00:19:38;6.50;99.90
23283;DHT22;11810;51.178;3.878;2023-02-22T00:22:03;6.50;99.90
23283;DHT22;11810;51.178;3.878;2023-02-22T00:24:31;6.50;99.90
23283;DHT22;11810;51.178;3.878;2023-02-22T00:26:57;6.40;99.90
23283;DHT22;11810;51.178;3.878;2023-02-22T00:29:24;6.40;99.90
23283;DHT22;11810;51.178;3.878;2023-02-22T00:31:50;6.40;99.90
23283;DHT22;11810;51.178;3.878;2023-02-22T00:34:16;6.30;99.90
23283;DHT22;11810;51.178;3.878;2023-02-22T00:38:30;6.20;99.90
23283;DHT22;11810;51.178;3.878;2023-02-22T00:40:56;6.20;99.90
23283;DHT22;11810;51.178;3.878;2023-02-22T00:43:22;6.30;99.90
23283;DHT22;11810;51.178;3.878;2023-02-22T00:45:49;6.30;99.90
23283;DHT22;11810;51.178;3.878;2023-02-22T00:48:19;6.30;99.90
23283;DHT22;11810;51.178;3.878;2023-02-22T00:50:45;6.30;99.90
23283;DHT22;11810;51.178;3.878;2023-02-22T00:53:14;6.50;99.90
23283;DHT22;11810;51.178;3.878;2023-02-22T00:55:40;6.50;99.90
23283;DHT22;11810;51.178;3.878;2023-02-22T00:58:07;6.50;99.90
23283;DHT22;11810;51.178;3.878;2023-02-22T01:00:36;6.50;99.90
23283;DHT22;11810;51.178;3.878;2023-02-22T01:03:03;6.50;99.90
23283;DHT22;11810;51.178;3.878;2023-02-22T01:05:30;6.50;99.90
23283;DHT22;11810;51.178;3.878;2023-02-22T01:07:59;6.50;99.90
23283;DHT22;11810;51.178;3.878;2023-02-22T01:10:28;6.50;99.90
23283;DHT22;11810;51.178;3.878;2023-02-22T01:12:55;6.50;99.90
23283;DHT22;11810;51.178;3.878;2023-02-22T01:15:38;6.50;99.90
23283;DHT22;11810;51.178;3.878;2023-02-22T01:18:05;6.50;99.90
23283;DHT22;11810;51.178;3.878;2023-02-22T01:20:31;6.40;99.90
23283;DHT22;11810;51.178;3.878;2023-02-22T01:22:58;6.40;99.90
23283;DHT22;11810;51.178;3.878;2023-02-22T01:25:27;6.50;99.90
23283;DHT22;11810;51.178;3.878;2023-02-22T01:28:38;6.30;99.90
23283;DHT22;11810;51.178;3.878;2023-02-22T01:31:04;6.30;99.90
23283;DHT22;11810;51.178;3.878;2023-02-22T01:33:39;6.30;99.90
23283;DHT22;11810;51.178;3.878;2023-02-22T01:36:05;6.30;99.90
23283;DHT22;11810;51.178;3.878;2023-02-22T01:38:37;6.40;99.90
23283;DHT22;11810;51.178;3.878;2023-02-22T01:41:03;6.40;99.90
23283;DHT22;11810;51.178;3.878;2023-02-22T01:45:49;6.50;99.90
23283;DHT22;11810;51.178;3.878;2023-02-22T01:50:51;6.60;99.90
23283;DHT22;11810;51.178;3.878;2023-02-22T01:53:21;6.50;99.90
23283;DHT22;11810;51.178;3.878;2023-02-22T01:56:53;6.40;99.90
23283;DHT22;11810;51.178;3.878;2023-02-22T01:59:22;6.40;99.90
23283;DHT22;11810;51.178;3.878;2023-02-22T02:01:48;6.20;99.90
23283;DHT22;11810;51.178;3.878;2023-02-22T02:04:18;6.10;99.90
23283;DHT22;11810;51.178;3.878;2023-02-22T02:06:46;6.20;99.90
23283;DHT22;11810;51.178;3.878;2023-02-22T02:11:41;6.20;99.90
23283;DHT22;11810;51.178;3.878;2023-02-22T02:14:09;6.30;99.90
23283;DHT22;11810;51.178;3.878;2023-02-22T02:16:49;6.30;99.90
23283;DHT22;11810;51.178;3.878;2023-02-22T02:19:23;6.40;99.90
23283;DHT22;11810;51.178;3.878;2023-02-22T02:33:17;6.30;99.90
23283;DHT22;11810;51.178;3.878;2023-02-22T02:35:59;6.40;99.90
23283;DHT22;11810;51.178;3.878;2023-02-22T02:41:09;6.30;99.90
23283;DHT22;11810;51.178;3.878;2023-02-22T02:44:21;6.30;99.90
23283;DHT22;11810;51.178;3.878;2023-02-22T02:47:52;6.40;99.90
23283;DHT22;11810;51.178;3.878;2023-02-22T02:50:35;6.40;99.90
23283;DHT22;11810;51.178;3.878;2023-02-22T02:54:48;6.30;99.90
23283;DHT22;11810;51.178;3.878;2023-02-22T02:57:15;6.30;99.90
23283;DHT22;11810;51.178;3.878;2023-02-22T02:59:41;6.40;99.90
23283;DHT22;11810;51.178;3.878;2023-02-22T03:08:38;6.30;99.90
23283;DHT22;11810;51.178;3.878;2023-02-22T03:11:27;6.20;99.90
23283;DHT22;11810;51.178;3.878;2023-02-22T03:18:27;6.50;99.90
23283;DHT22;11810;51.178;3.878;2023-02-22T03:21:05;6.50;99.90
23283;DHT22;11810;51.178;3.878;2023-02-22T03:27:06;6.40;99.90
23283;DHT22;11810;51.178;3.878;2023-02-22T03:29:38;6.50;99.90
23283;DHT22;11810;51.178;3.878;2023-02-22T03:32:09;6.50;99.90
23283;DHT22;11810;51.178;3.878;2023-02-22T03:34:45;6.40;99.90
23283;DHT22;11810;51.178;3.878;2023-02-22T03:39:54;6.50;99.90
23283;DHT22;11810;51.178;3.878;2023-02-22T03:42:25;6.70;99.90
23283;DHT22;11810;51.178;3.878;2023-02-22T03:44:57;6.60;99.90
23283;DHT22;11810;51.178;3.878;2023-02-22T03:49:11;6.40;99.90
23283;DHT22;11810;51.178;3.878;2023-02-22T03:51:39;6.40;99.90
23283;DHT22;11810;51.178;3.878;2023-02-22T03:54:05;6.50;99.90
23283;DHT22;11810;51.178;3.878;2023-02-22T03:56:36;6.60;99.90
23283;DHT22;11810;51.178;3.878;2023-02-22T03:59:08;6.40;99.90
23283;DHT22;11810;51.178;3.878;2023-02-22T04:01:35;6.40;99.90
23283;DHT22;11810;51.178;3.878;2023-02-22T04:04:02;6.40;99.90
23283;DHT22;11810;51.178;3.878;2023-02-22T04:06:28;6.50;99.90
23283;DHT22;11810;51.178;3.878;2023-02-22T04:08:54;6.50;99.90
23283;DHT22;11810;51.178;3.878;2023-02-22T04:11:20;6.50;99.90
23283;DHT22;11810;51.178;3.878;2023-02-22T04:13:46;6.60;99.90
23283;DHT22;11810;51.178;3.878;2023-02-22T04:16:12;6.60;99.90
23283;DHT22;11810;51.178;3.878;2023-02-22T04:18:38;6.50;99.90
23283;DHT22;11810;51.178;3.878;2023-02-22T04:21:04;6.70;99.90
23283;DHT22;11810;51.178;3.878;2023-02-22T04:23:30;6.60;99.90
23283;DHT22;11810;51.178;3.878;2023-02-22T04:25:56;6.50;99.90
23283;DHT22;11810;51.178;3.878;2023-02-22T04:28:22;6.60;99.90
23283;DHT22;11810;51.178;3.878;2023-02-22T04:30:48;6.70;99.90
23283;DHT22;11810;51.178;3.878;2023-02-22T04:33:14;6.80;99.90
23283;DHT22;11810;51.178;3.878;2023-02-22T04:35:40;6.80;99.90
23283;DHT22;11810;51.178;3.878;2023-02-22T04:38:07;6.70;99.90
23283;DHT22;11810;51.178;3.878;2023-02-22T04:40:34;6.70;99.90
23283;DHT22;11810;51.178;3.878;2023-02-22T04:43:00;6.60;99.90
23283;DHT22;11810;51.178;3.878;2023-02-22T04:45:26;6.50;99.90
23283;DHT22;11810;51.178;3.878;2023-02-22T04:47:52;6.50;99.90
23283;DHT22;11810;51.178;3.878;2023-02-22T04:50:18;6.50;99.90
23283;DHT22;11810;51.178;3.878;2023-02-22T04:52:44;6.50;99.90
23283;DHT22;11810;51.178;3.878;2023-02-22T04:55:10;6.50;99.90
23283;DHT22;11810;51.178;3.878;2023-02-22T04:58:01;6.60;99.90
23283;DHT22;11810;51.178;3.878;2023-02-22T05:00:27;6.70;99.90
23283;DHT22;11810;51.178;3.878;2023-02-22T05:02:53;6.60;99.90
23283;DHT22;11810;51.178;3.878;2023-02-22T05:05:20;6.60;99.90
23283;DHT22;11810;51.178;3.878;2023-02-22T05:07:47;6.60;99.90
23283;DHT22;11810;51.178;3.878;2023-02-22T05:10:14;6.60;99.90
23283;DHT22;11810;51.178;3.878;2023-02-22T05:14:04;6.60;99.90
23283;DHT22;11810;51.178;3.878;2023-02-22T05:16:30;6.50;99.90
23283;DHT22;11810;51.178;3.878;2023-02-22T05:18:56;6.40;99.90
23283;DHT22;11810;51.178;3.878;2023-02-22T05:21:21;6.40;99.90
23283;DHT22;11810;51.178;3.878;2023-02-22T05:23:48;6.40;99.90
23283;DHT22;11810;51.178;3.878;2023-02-22T05:26:14;6.40;99.90
23283;DHT22;11810;51.178;3.878;2023-02-22T05:28:40;6.40;99.90
23283;DHT22;11810;51.178;3.878;2023-02-22T05:31:06;6.40;99.90
23283;DHT22;11810;51.178;3.878;2023-02-22T05:33:32;6.40;99.90
23283;DHT22;11810;51.178;3.878;2023-02-22T05:35:58;6.30;99.90
23283;DHT22;11810;51.178;3.878;2023-02-22T05:38:24;6.20;99.90
23283;DHT22;11810;51.178;3.878;2023-02-22T05:40:50;6.00;99.90
23283;DHT22;11810;51.178;3.878;2023-02-22T05:43:16;6.00;99.90
23283;DHT22;11810;51.178;3.878;2023-02-22T05:45:42;6.00;99.90
23283;DHT22;11810;51.178;3.878;2023-02-22T05:48:08;6.00;99.90
23283;DHT22;11810;51.178;3.878;2023-02-22T05:50:34;6.00;99.90
23283;DHT22;11810;51.178;3.878;2023-02-22T05:53:00;6.10;99.90
23283;DHT22;11810;51.178;3.878;2023-02-22T05:55:26;6.20;99.90
23283;DHT22;11810;51.178;3.878;2023-02-22T05:57:53;6.20;99.90
23283;DHT22;11810;51.178;3.878;2023-02-22T06:00:29;6.20;99.90
23283;DHT22;11810;51.178;3.878;2023-02-22T06:03:01;6.20;99.90
23283;DHT22;11810;51.178;3.878;2023-02-22T06:05:27;6.20;99.90
23283;DHT22;11810;51.178;3.878;2023-02-22T06:07:54;6.30;99.90
23283;DHT22;11810;51.178;3.878;2023-02-22T06:10:20;6.30;99.90
23283;DHT22;11810;51.178;3.878;2023-02-22T06:13:11;6.20;99.90
23283;DHT22;11810;51.178;3.878;2023-02-22T06:15:37;6.20;99.90
23283;DHT22;11810;51.178;3.878;2023-02-22T06:18:03;6.20;99.90
23283;DHT22;11810;51.178;3.878;2023-02-22T06:20:30;6.30;99.90
23283;DHT22;11810;51.178;3.878;2023-02-22T06:22:57;6.30;99.90
23283;DHT22;11810;51.178;3.878;2023-02-22T06:25:26;6.40;99.90
23283;DHT22;11810;51.178;3.878;2023-02-22T06:27:52;6.30;99.90
23283;DHT22;11810;51.178;3.878;2023-02-22T06:30:20;6.30;99.90
23283;DHT22;11810;51.178;3.878;2023-02-22T06:32:47;6.40;99.90
23283;DHT22;11810;51.178;3.878;2023-02-22T06:35:14;6.30;99.90
23283;DHT22;11810;51.178;3.878;2023-02-22T06:37:40;6.30;99.90
23283;DHT22;11810;51.178;3.878;2023-02-22T06:42:15;6.40;99.90
23283;DHT22;11810;51.178;3.878;2023-02-22T06:44:41;6.50;99.90
23283;DHT22;11810;51.178;3.878;2023-02-22T06:47:07;6.40;99.90
23283;DHT22;11810;51.178;3.878;2023-02-22T06:51:27;6.30;99.90
23283;DHT22;11810;51.178;3.878;2023-02-22T06:53:54;6.30;99.90
23283;DHT22;11810;51.178;3.878;2023-02-22T06:57:18;6.00;99.90
23283;DHT22;11810;51.178;3.878;2023-02-22T06:59:44;5.80;99.90
23283;DHT22;11810;51.178;3.878;2023-02-22T07:02:11;5.90;99.90
23283;DHT22;11810;51.178;3.878;2023-02-22T07:04:37;6.10;99.90
23283;DHT22;11810;51.178;3.878;2023-02-22T07:07:04;6.10;99.90
23283;DHT22;11810;51.178;3.878;2023-02-22T07:09:30;5.90;99.90
23283;DHT22;11810;51.178;3.878;2023-02-22T07:11:56;5.90;99.90
23283;DHT22;11810;51.178;3.878;2023-02-22T07:14:22;5.90;99.90
23283;DHT22;11810;51.178;3.878;2023-02-22T07:16:47;6.00;99.90
23283;DHT22;11810;51.178;3.878;2023-02-22T07:19:13;6.00;99.90
23283;DHT22;11810;51.178;3.878;2023-02-22T07:21:39;6.00;99.90
23283;DHT22;11810;51.178;3.878;2023-02-22T07:24:05;5.90;99.90
23283;DHT22;11810;51.178;3.878;2023-02-22T07:26:40;6.10;99.90
23283;DHT22;11810;51.178;3.878;2023-02-22T07:29:06;6.10;99.90
23283;DHT22;11810;51.178;3.878;2023-02-22T07:31:38;6.30;99.90
23283;DHT22;11810;51.178;3.878;2023-02-22T07:34:22;6.40;99.90
23283;DHT22;11810;51.178;3.878;2023-02-22T07:36:48;6.60;99.90
23283;DHT22;11810;51.178;3.878;2023-02-22T07:39:14;6.50;99.90
23283;DHT22;11810;51.178;3.878;2023-02-22T07:41:40;6.60;99.90
23283;DHT22;11810;51.178;3.878;2023-02-22T07:44:06;6.60;99.90
23283;DHT22;11810;51.178;3.878;2023-02-22T07:46:32;6.50;99.90
23283;DHT22;11810;51.178;3.878;2023-02-22T07:48:58;6.60;99.90
23283;DHT22;11810;51.178;3.878;2023-02-22T07:51:24;6.60;99.90
23283;DHT22;11810;51.178;3.878;2023-02-22T07:53:51;6.60;99.90
23283;DHT22;11810;51.178;3.878;2023-02-22T07:57:25;6.70;99.90
23283;DHT22;11810;51.178;3.878;2023-02-22T07:59:51;6.60;99.90
23283;DHT22;11810;51.178;3.878;2023-02-22T08:02:18;6.50;99.90
23283;DHT22;11810;51.178;3.878;2023-02-22T08:06:27;6.70;99.90
23283;DHT22;11810;51.178;3.878;2023-02-22T08:08:54;6.60;99.90
23283;DHT22;11810;51.178;3.878;2023-02-22T08:11:20;6.60;99.90
23283;DHT22;11810;51.178;3.878;2023-02-22T08:13:46;6.70;99.90
23283;DHT22;11810;51.178;3.878;2023-02-22T08:16:12;6.80;99.90
23283;DHT22;11810;51.178;3.878;2023-02-22T08:18:39;6.80;99.90
23283;DHT22;11810;51.178;3.878;2023-02-22T08:21:05;7.00;99.90
23283;DHT22;11810;51.178;3.878;2023-02-22T08:23:31;7.10;99.90
23283;DHT22;11810;51.178;3.878;2023-02-22T08:26:05;7.20;99.90
23283;DHT22;11810;51.178;3.878;2023-02-22T09:31:37;7.40;99.90
23283;DHT22;11810;51.178;3.878;2023-02-22T09:34:04;8.70;99.90
23283;DHT22;11810;51.178;3.878;2023-02-22T09:36:39;8.90;99.90
23283;DHT22;11810;51.178;3.878;2023-02-22T09:39:05;8.90;99.90
23283;DHT22;11810;51.178;3.878;2023-02-22T09:47:01;9.40;99.90
23283;DHT22;11810;51.178;3.878;2023-02-22T09:49:33;9.90;99.90
23283;DHT22;11810;51.178;3.878;2023-02-22T09:52:35;10.30;99.90
23283;DHT22;11810;51.178;3.878;2023-02-22T09:55:23;10.60;99.90
23283;DHT22;11810;51.178;3.878;2023-02-22T09:57:56;10.60;99.90
23283;DHT22;11810;51.178;3.878;2023-02-22T10:00:32;10.80;99.90
23283;DHT22;11810;51.178;3.878;2023-02-22T10:05:36;10.60;99.90
23283;DHT22;11810;51.178;3.878;2023-02-22T10:08:26;10.60;99.90
23283;DHT22;11810;51.178;3.878;2023-02-22T10:11:05;10.80;99.90
23283;DHT22;11810;51.178;3.878;2023-02-22T10:17:57;11.10;99.90
23283;DHT22;11810;51.178;3.878;2023-02-22T10:20:56;11.00;99.90
23283;DHT22;11810;51.178;3.878;2023-02-22T10:26:25;11.10;99.90
23283;DHT22;11810;51.178;3.878;2023-02-22T10:29:05;11.20;99.90
23283;DHT22;11810;51.178;3.878;2023-02-22T10:31:37;11.20;99.90
23283;DHT22;11810;51.178;3.878;2023-02-22T10:34:13;11.20;99.90
23283;DHT22;11810;51.178;3.878;2023-02-22T10:36:42;11.50;99.90
23283;DHT22;11810;51.178;3.878;2023-02-22T10:39:18;11.70;99.90
23283;DHT22;11810;51.178;3.878;2023-02-22T10:41:51;12.00;99.90
23283;DHT22;11810;51.178;3.878;2023-02-22T10:44:19;11.90;99.90
23283;DHT22;11810;51.178;3.878;2023-02-22T10:46:46;11.90;99.90
23283;DHT22;11810;51.178;3.878;2023-02-22T10:49:17;12.20;99.90
23283;DHT22;11810;51.178;3.878;2023-02-22T10:51:47;12.20;99.90
23283;DHT22;11810;51.178;3.878;2023-02-22T10:56:52;12.30;99.90
23283;DHT22;11810;51.178;3.878;2023-02-22T10:59:37;12.10;99.90
23283;DHT22;11810;51.178;3.878;2023-02-22T11:05:27;12.00;99.90
23283;DHT22;11810;51.178;3.878;2023-02-22T11:10:42;12.00;99.90
23283;DHT22;11810;51.178;3.878;2023-02-22T11:13:37;12.10;99.90
23283;DHT22;11810;51.178;3.878;2023-02-22T11:19:48;12.10;99.90
23283;DHT22;11810;51.178;3.878;2023-02-22T11:22:41;11.80;99.90
23283;DHT22;11810;51.178;3.878;2023-02-22T11:25:07;11.60;99.90
23283;DHT22;11810;51.178;3.878;2023-02-22T11:27:44;11.70;99.90
23283;DHT22;11810;51.178;3.878;2023-02-22T11:30:21;11.90;99.90
23283;DHT22;11810;51.178;3.878;2023-02-22T11:32:55;11.90;99.90
23283;DHT22;11810;51.178;3.878;2023-02-22T11:38:15;11.60;99.90
23283;DHT22;11810;51.178;3.878;2023-02-22T11:40:43;11.80;99.90
23283;DHT22;11810;51.178;3.878;2023-02-22T11:43:17;12.30;99.90
23283;DHT22;11810;51.178;3.878;2023-02-22T11:48:21;12.50;99.90
23283;DHT22;11810;51.178;3.878;2023-02-22T11:58:41;12.40;99.90
23283;DHT22;11810;51.178;3.878;2023-02-22T12:01:22;12.50;99.90
23283;DHT22;11810;51.178;3.878;2023-02-22T12:07:12;12.60;99.90
23283;DHT22;11810;51.178;3.878;2023-02-22T12:09:59;12.60;99.90
23283;DHT22;11810;51.178;3.878;2023-02-22T12:19:03;12.40;99.90
23283;DHT22;11810;51.178;3.878;2023-02-22T12:21:31;12.30;99.90
23283;DHT22;11810;51.178;3.878;2023-02-22T12:24:19;12.50;99.90
23283;DHT22;11810;51.178;3.878;2023-02-22T12:27:26;12.60;99.90
23283;DHT22;11810;51.178;3.878;2023-02-22T12:30:30;12.50;99.90
23283;DHT22;11810;51.178;3.878;2023-02-22T12:33:10;12.60;99.90
23283;DHT22;11810;51.178;3.878;2023-02-22T12:35:41;12.40;99.90
23283;DHT22;11810;51.178;3.878;2023-02-22T12:38:45;12.50;99.90
23283;DHT22;11810;51.178;3.878;2023-02-22T12:41:42;12.40;99.90
23283;DHT22;11810;51.178;3.878;2023-02-22T12:44:23;11.80;99.90
23283;DHT22;11810;51.178;3.878;2023-02-22T12:46:55;11.50;99.90
23283;DHT22;11810;51.178;3.878;2023-02-22T12:52:11;11.50;99.90
23283;DHT22;11810;51.178;3.878;2023-02-22T12:54:52;11.30;99.90
23283;DHT22;11810;51.178;3.878;2023-02-22T13:02:36;11.30;99.90
23283;DHT22;11810;51.178;3.878;2023-02-22T13:05:04;11.20;99.90
23283;DHT22;11810;51.178;3.878;2023-02-22T13:07:43;11.20;99.90
23283;DHT22;11810;51.178;3.878;2023-02-22T13:10:32;11.10;99.90
23283;DHT22;11810;51.178;3.878;2023-02-22T13:15:57;11.20;99.90
23283;DHT22;11810;51.178;3.878;2023-02-22T13:26:26;11.10;99.90
23283;DHT22;11810;51.178;3.878;2023-02-22T13:29:05;11.30;99.90
23283;DHT22;11810;51.178;3.878;2023-02-22T13:36:39;10.90;99.90
23283;DHT22;11810;51.178;3.878;2023-02-22T13:42:51;10.90;99.90
23283;DHT22;11810;51.178;3.878;2023-02-22T13:56:49;11.20;99.90
23283;DHT22;11810;51.178;3.878;2023-02-22T13:59:29;11.00;99.90
23283;DHT22;11810;51.178;3.878;2023-02-22T14:01:57;10.90;99.90
23283;DHT22;11810;51.178;3.878;2023-02-22T14:07:03;11.00;99.90
23283;DHT22;11810;51.178;3.878;2023-02-22T14:20:37;11.00;99.90
23283;DHT22;11810;51.178;3.878;2023-02-22T14:31:17;10.80;99.90
23283;DHT22;11810;51.178;3.878;2023-02-22T14:39:33;10.60;99.90
23283;DHT22;11810;51.178;3.878;2023-02-22T14:44:47;10.40;99.90
23283;DHT22;11810;51.178;3.878;2023-02-22T14:47:20;10.40;99.90
23283;DHT22;11810;51.178;3.878;2023-02-22T14:49:54;10.50;99.90
23283;DHT22;11810;51.178;3.878;2023-02-22T14:52:27;10.60;99.90
23283;DHT22;11810;51.178;3.878;2023-02-22T14:54:56;10.70;99.90
23283;DHT22;11810;51.178;3.878;2023-02-22T14:57:40;10.60;99.90
23283;DHT22;11810;51.178;3.878;2023-02-22T15:02:46;10.60;99.90
23283;DHT22;11810;51.178;3.878;2023-02-22T15:05:14;10.50;99.90
23283;DHT22;11810;51.178;3.878;2023-02-22T15:07:53;10.50;99.90
23283;DHT22;11810;51.178;3.878;2023-02-22T15:10:29;10.50;99.90
23283;DHT22;11810;51.178;3.878;2023-02-22T15:13:03;10.50;99.90
23283;DHT22;11810;51.178;3.878;2023-02-22T15:15:43;10.50;99.90
23283;DHT22;11810;51.178;3.878;2023-02-22T15:18:26;10.30;99.90
23283;DHT22;11810;51.178;3.878;2023-02-22T15:20:57;10.40;99.90
23283;DHT22;11810;51.178;3.878;2023-02-22T15:23:27;10.40;99.90
23283;DHT22;11810;51.178;3.878;2023-02-22T15:25:55;10.40;99.90
23283;DHT22;11810;51.178;3.878;2023-02-22T15:28:23;10.50;99.90
23283;DHT22;11810;51.178;3.878;2023-02-22T15:30:49;10.60;99.90
23283;DHT22;11810;51.178;3.878;2023-02-22T15:33:18;10.70;99.90
23283;DHT22;11810;51.178;3.878;2023-02-22T15:35:57;10.80;99.90
23283;DHT22;11810;51.178;3.878;2023-02-22T15:38:29;10.70;99.90
23283;DHT22;11810;51.178;3.878;2023-02-22T15:41:00;10.80;99.90
23283;DHT22;11810;51.178;3.878;2023-02-22T15:43:27;10.70;99.90
23283;DHT22;11810;51.178;3.878;2023-02-22T15:45:54;10.70;99.90
23283;DHT22;11810;51.178;3.878;2023-02-22T15:48:21;10.60;99.90
23283;DHT22;11810;51.178;3.878;2023-02-22T15:51:06;10.50;99.90
23283;DHT22;11810;51.178;3.878;2023-02-22T15:53:48;10.60;99.90
23283;DHT22;11810;51.178;3.878;2023-02-22T15:56:18;10.70;99.90
23283;DHT22;11810;51.178;3.878;2023-02-22T15:58:48;10.70;99.90
23283;DHT22;11810;51.178;3.878;2023-02-22T16:01:16;10.70;99.90
23283;DHT22;11810;51.178;3.878;2023-02-22T16:03:52;10.80;99.90
23283;DHT22;11810;51.178;3.878;2023-02-22T16:06:34;10.80;99.90
23283;DHT22;11810;51.178;3.878;2023-02-22T16:09:22;10.80;99.90
23283;DHT22;11810;51.178;3.878;2023-02-22T16:14:47;10.70;99.90
23283;DHT22;11810;51.178;3.878;2023-02-22T16:22:39;10.70;99.90
23283;DHT22;11810;51.178;3.878;2023-02-22T16:27:50;10.70;99.90
23283;DHT22;11810;51.178;3.878;2023-02-22T16:32:47;10.70;99.90
23283;DHT22;11810;51.178;3.878;2023-02-22T16:35:13;10.80;99.90
23283;DHT22;11810;51.178;3.878;2023-02-22T16:37:55;10.80;99.90
23283;DHT22;11810;51.178;3.878;2023-02-22T16:40:27;10.80;99.90
23283;DHT22;11810;51.178;3.878;2023-02-22T16:42:58;10.70;99.90
23283;DHT22;11810;51.178;3.878;2023-02-22T16:45:24;10.70;99.90
23283;DHT22;11810;51.178;3.878;2023-02-22T16:47:50;10.70;99.90
23283;DHT22;11810;51.178;3.878;2023-02-22T16:50:19;10.80;99.90
23283;DHT22;11810;51.178;3.878;2023-02-22T16:52:46;10.70;99.90
23283;DHT22;11810;51.178;3.878;2023-02-22T16:55:15;10.80;99.90
23283;DHT22;11810;51.178;3.878;2023-02-22T16:57:42;10.80;99.90
23283;DHT22;11810;51.178;3.878;2023-02-22T17:00:18;10.70;99.90
23283;DHT22;11810;51.178;3.878;2023-02-22T17:02:47;10.60;99.90
23283;DHT22;11810;51.178;3.878;2023-02-22T17:05:14;10.70;99.90
23283;DHT22;11810;51.178;3.878;2023-02-22T17:07:41;10.70;99.90
23283;DHT22;11810;51.178;3.878;2023-02-22T17:10:13;10.70;99.90
23283;DHT22;11810;51.178;3.878;2023-02-22T17:12:39;10.70;99.90
23283;DHT22;11810;51.178;3.878;2023-02-22T17:15:17;10.70;99.90
23283;DHT22;11810;51.178;3.878;2023-02-22T17:17:44;10.70;99.90
23283;DHT22;11810;51.178;3.878;2023-02-22T17:20:10;10.60;99.90
23283;DHT22;11810;51.178;3.878;2023-02-22T17:22:36;10.60;99.90
23283;DHT22;11810;51.178;3.878;2023-02-22T17:25:20;10.60;99.90
23283;DHT22;11810;51.178;3.878;2023-02-22T17:27:47;10.60;99.90
23283;DHT22;11810;51.178;3.878;2023-02-22T17:30:14;10.60;99.90
23283;DHT22;11810;51.178;3.878;2023-02-22T17:32:42;10.50;99.90
23283;DHT22;11810;51.178;3.878;2023-02-22T17:35:07;10.40;99.90
23283;DHT22;11810;51.178;3.878;2023-02-22T17:37:33;10.30;99.90
23283;DHT22;11810;51.178;3.878;2023-02-22T17:39:59;10.30;99.90
23283;DHT22;11810;51.178;3.878;2023-02-22T17:42:25;10.20;99.90
23283;DHT22;11810;51.178;3.878;2023-02-22T17:44:51;10.10;99.90
23283;DHT22;11810;51.178;3.878;2023-02-22T17:47:16;10.10;99.90
23283;DHT22;11810;51.178;3.878;2023-02-22T17:49:43;10.20;99.90
23283;DHT22;11810;51.178;3.878;2023-02-22T17:52:09;10.30;99.90
23283;DHT22;11810;51.178;3.878;2023-02-22T17:54:40;10.20;99.90
23283;DHT22;11810;51.178;3.878;2023-02-22T17:57:06;10.20;99.90
23283;DHT22;11810;51.178;3.878;2023-02-22T17:59:32;10.30;99.90
23283;DHT22;11810;51.178;3.878;2023-02-22T18:01:59;10.20;99.90
23283;DHT22;11810;51.178;3.878;2023-02-22T18:04:25;10.20;99.90
23283;DHT22;11810;51.178;3.878;2023-02-22T18:06:51;10.20;99.90
23283;DHT22;11810;51.178;3.878;2023-02-22T18:09:17;10.30;99.90
23283;DHT22;11810;51.178;3.878;2023-02-22T18:11:44;10.20;99.90
23283;DHT22;11810;51.178;3.878;2023-02-22T18:14:10;10.20;99.90
23283;DHT22;11810;51.178;3.878;2023-02-22T18:16:37;10.20;99.90
23283;DHT22;11810;51.178;3.878;2023-02-22T18:19:04;10.10;99.90
23283;DHT22;11810;51.178;3.878;2023-02-22T18:21:30;10.00;99.90
23283;DHT22;11810;51.178;3.878;2023-02-22T18:23:56;10.10;99.90
23283;DHT22;11810;51.178;3.878;2023-02-22T18:26:23;10.00;99.90
23283;DHT22;11810;51.178;3.878;2023-02-22T18:28:49;10.00;99.90
23283;DHT22;11810;51.178;3.878;2023-02-22T18:31:46;10.00;99.90
23283;DHT22;11810;51.178;3.878;2023-02-22T18:34:12;10.00;99.90
23283;DHT22;11810;51.178;3.878;2023-02-22T18:36:40;10.00;99.90
23283;DHT22;11810;51.178;3.878;2023-02-22T18:39:06;10.00;99.90
23283;DHT22;11810;51.178;3.878;2023-02-22T18:41:36;10.00;99.90
23283;DHT22;11810;51.178;3.878;2023-02-22T18:44:05;10.00;99.90
23283;DHT22;11810;51.178;3.878;2023-02-22T18:46:35;9.90;99.90
23283;DHT22;11810;51.178;3.878;2023-02-22T18:49:02;9.90;99.90
23283;DHT22;11810;51.178;3.878;2023-02-22T18:51:29;9.80;99.90
23283;DHT22;11810;51.178;3.878;2023-02-22T18:53:58;9.90;99.90
23283;DHT22;11810;51.178;3.878;2023-02-22T18:56:49;10.00;99.90
23283;DHT22;11810;51.178;3.878;2023-02-22T18:59:15;10.00;99.90
23283;DHT22;11810;51.178;3.878;2023-02-22T19:01:41;10.10;99.90
23283;DHT22;11810;51.178;3.878;2023-02-22T19:04:13;10.20;99.90
23283;DHT22;11810;51.178;3.878;2023-02-22T19:06:40;10.20;99.90
23283;DHT22;11810;51.178;3.878;2023-02-22T19:09:07;10.20;99.90
23283;DHT22;11810;51.178;3.878;2023-02-22T19:11:34;10.10;99.90
23283;DHT22;11810;51.178;3.878;2023-02-22T19:14:01;10.10;99.90
23283;DHT22;11810;51.178;3.878;2023-02-22T19:16:30;10.00;99.90
23283;DHT22;11810;51.178;3.878;2023-02-22T19:18:57;10.00;99.90
23283;DHT22;11810;51.178;3.878;2023-02-22T19:21:24;10.00;99.90
23283;DHT22;11810;51.178;3.878;2023-02-22T19:23:50;10.10;99.90
23283;DHT22;11810;51.178;3.878;2023-02-22T19:26:18;10.20;99.90
23283;DHT22;11810;51.178;3.878;2023-02-22T19:28:45;10.30;99.90
23283;DHT22;11810;51.178;3.878;2023-02-22T19:31:18;10.30;99.90
23283;DHT22;11810;51.178;3.878;2023-02-22T19:33:45;10.20;99.90
23283;DHT22;11810;51.178;3.878;2023-02-22T19:36:13;10.10;99.90
23283;DHT22;11810;51.178;3.878;2023-02-22T19:38:39;10.00;99.90
23283;DHT22;11810;51.178;3.878;2023-02-22T19:41:07;9.90;99.90
23283;DHT22;11810;51.178;3.878;2023-02-22T19:43:34;10.00;99.90
23283;DHT22;11810;51.178;3.878;2023-02-22T19:46:05;10.00;99.90
23283;DHT22;11810;51.178;3.878;2023-02-22T19:48:31;10.10;99.90
23283;DHT22;11810;51.178;3.878;2023-02-22T19:51:06;10.10;99.90
23283;DHT22;11810;51.178;3.878;2023-02-22T19:53:33;10.10;99.90
23283;DHT22;11810;51.178;3.878;2023-02-22T19:56:03;10.10;99.90
23283;DHT22;11810;51.178;3.878;2023-02-22T19:58:30;10.10;99.90
23283;DHT22;11810;51.178;3.878;2023-02-22T20:00:57;10.10;99.90
23283;DHT22;11810;51.178;3.878;2023-02-22T20:05:02;10.00;99.90
23283;DHT22;11810;51.178;3.878;2023-02-22T20:07:28;10.00;99.90
23283;DHT22;11810;51.178;3.878;2023-02-22T20:09:55;9.90;99.90
23283;DHT22;11810;51.178;3.878;2023-02-22T20:12:21;9.80;99.90
23283;DHT22;11810;51.178;3.878;2023-02-22T20:14:47;9.90;99.90